sensor_id;sensor_type;location;lat;lon;timestamp;P1;durP1;ratioP1;P2;durP2;ratioP2
24147;SDS011;12309;51.450;-2.624;2023-02-21T00:01:38;2.57;;;0.50;;
24147;SDS011;12309;51.450;-2.624;2023-02-21T00:04:22;2.57;;;0.60;;
24147;SDS011;12309;51.450;-2.624;2023-02-21T00:07:06;1.87;;;0.80;;
24147;SDS011;12309;51.450;-2.624;2023-02-21T00:09:51;3.87;;;0.67;;
24147;SDS011;12309;51.450;-2.624;2023-02-21T00:12:34;2.20;;;0.50;;
24147;SDS011;12309;51.450;-2.624;2023-02-21T00:15:18;1.17;;;0.50;;
24147;SDS011;12309;51.450;-2.624;2023-02-21T00:18:02;0.93;;;0.70;;
24147;SDS011;12309;51.450;-2.624;2023-02-21T00:20:47;3.20;;;1.00;;
24147;SDS011;12309;51.450;-2.624;2023-02-21T00:23:34;2.33;;;1.10;;
24147;SDS011;12309;51.450;-2.624;2023-02-21T00:26:19;2.37;;;0.80;;
24147;SDS011;12309;51.450;-2.624;2023-02-21T00:29:04;1.17;;;0.80;;
24147;SDS011;12309;51.450;-2.624;2023-02-21T00:31:48;1.57;;;0.67;;
24147;SDS011;12309;51.450;-2.624;2023-02-21T00:34:32;1.60;;;0.70;;
24147;SDS011;12309;51.450;-2.624;2023-02-21T00:37:16;1.33;;;0.50;;
24147;SDS011;12309;51.450;-2.624;2023-02-21T00:40:01;2.30;;;0.87;;
24147;SDS011;12309;51.450;-2.624;2023-02-21T00:42:45;1.53;;;0.70;;
24147;SDS011;12309;51.450;-2.624;2023-02-21T00:45:29;2.87;;;0.90;;
24147;SDS011;12309;51.450;-2.624;2023-02-21T00:48:18;2.63;;;0.80;;
24147;SDS011;12309;51.450;-2.624;2023-02-21T00:51:07;1.30;;;0.80;;
24147;SDS011;12309;51.450;-2.624;2023-02-21T00:53:52;2.07;;;0.90;;
24147;SDS011;12309;51.450;-2.624;2023-02-21T00:56:37;1.97;;;0.90;;
24147;SDS011;12309;51.450;-2.624;2023-02-21T00:59:21;2.30;;;0.80;;
24147;SDS011;12309;51.450;-2.624;2023-02-21T01:02:06;1.67;;;0.70;;
24147;SDS011;12309;51.450;-2.624;2023-02-21T01:04:50;2.30;;;0.80;;
24147;SDS011;12309;51.450;-2.624;2023-02-21T01:07:34;2.13;;;0.60;;
24147;SDS011;12309;51.450;-2.624;2023-02-21T01:10:18;1.43;;;0.60;;
24147;SDS011;12309;51.450;-2.624;2023-02-21T01:13:03;2.37;;;0.80;;
24147;SDS011;12309;51.450;-2.624;2023-02-21T01:15:47;0.87;;;0.53;;
24147;SDS011;12309;51.450;-2.624;2023-02-21T01:18:32;1.77;;;0.70;;
24147;SDS011;12309;51.450;-2.624;2023-02-21T01:21:16;0.90;;;0.53;;
24147;SDS011;12309;51.450;-2.624;2023-02-21T01:24:01;0.87;;;0.40;;
24147;SDS011;12309;51.450;-2.624;2023-02-21T01:26:46;0.77;;;0.60;;
24147;SDS011;12309;51.450;-2.624;2023-02-21T01:29:30;1.93;;;0.63;;
24147;SDS011;12309;51.450;-2.624;2023-02-21T01:32:14;0.57;;;0.47;;
24147;SDS011;12309;51.450;-2.624;2023-02-21T01:34:59;0.97;;;0.77;;
24147;SDS011;12309;51.450;-2.624;2023-02-21T01:37:44;0.87;;;0.73;;
24147;SDS011;12309;51.450;-2.624;2023-02-21T01:40:28;0.80;;;0.60;;
24147;SDS011;12309;51.450;-2.624;2023-02-21T01:43:19;1.23;;;0.80;;
24147;SDS011;12309;51.450;-2.624;2023-02-21T01:46:06;0.90;;;0.70;;
24147;SDS011;12309;51.450;-2.624;2023-02-21T01:48:53;1.90;;;0.60;;
24147;SDS011;12309;51.450;-2.624;2023-02-21T01:51:39;1.27;;;0.50;;
24147;SDS011;12309;51.450;-2.624;2023-02-21T01:54:27;0.90;;;0.63;;
24147;SDS011;12309;51.450;-2.624;2023-02-21T01:57:15;1.93;;;0.50;;
24147;SDS011;12309;51.450;-2.624;2023-02-21T02:00:02;0.93;;;0.53;;
24147;SDS011;12309;51.450;-2.624;2023-02-21T02:02:51;0.83;;;0.60;;
24147;SDS011;12309;51.450;-2.624;2023-02-21T02:05:40;1.87;;;0.70;;
24147;SDS011;12309;51.450;-2.624;2023-02-21T02:08:28;0.93;;;0.77;;
24147;SDS011;12309;51.450;-2.624;2023-02-21T02:17:23;2.73;;;0.80;;
24147;SDS011;12309;51.450;-2.624;2023-02-21T02:22:44;1.10;;;0.80;;
24147;SDS011;12309;51.450;-2.624;2023-02-21T02:39:22;1.27;;;0.90;;
24147;SDS011;12309;51.450;-2.624;2023-02-21T02:42:09;1.47;;;1.00;;
24147;SDS011;12309;51.450;-2.624;2023-02-21T02:44:37;1.27;;;0.80;;
24147;SDS011;12309;51.450;-2.624;2023-02-21T02:47:05;1.20;;;0.80;;
24147;SDS011;12309;51.450;-2.624;2023-02-21T02:49:39;3.30;;;1.10;;
24147;SDS011;12309;51.450;-2.624;2023-02-21T02:52:07;1.67;;;0.90;;
24147;SDS011;12309;51.450;-2.624;2023-02-21T02:54:34;3.40;;;0.93;;
24147;SDS011;12309;51.450;-2.624;2023-02-21T02:57:00;1.00;;;0.80;;
24147;SDS011;12309;51.450;-2.624;2023-02-21T02:59:29;0.93;;;0.80;;
24147;SDS011;12309;51.450;-2.624;2023-02-21T03:07:20;1.17;;;0.90;;
24147;SDS011;12309;51.450;-2.624;2023-02-21T03:12:50;3.13;;;0.80;;
24147;SDS011;12309;51.450;-2.624;2023-02-21T03:15:51;2.10;;;0.80;;
24147;SDS011;12309;51.450;-2.624;2023-02-21T03:18:41;0.50;;;0.40;;
24147;SDS011;12309;51.450;-2.624;2023-02-21T03:21:11;1.80;;;0.60;;
24147;SDS011;12309;51.450;-2.624;2023-02-21T03:23:41;0.50;;;0.40;;
24147;SDS011;12309;51.450;-2.624;2023-02-21T03:26:09;1.67;;;0.40;;
24147;SDS011;12309;51.450;-2.624;2023-02-21T03:28:37;1.30;;;0.67;;
24147;SDS011;12309;51.450;-2.624;2023-02-21T03:31:04;0.93;;;0.70;;
24147;SDS011;12309;51.450;-2.624;2023-02-21T03:33:33;0.60;;;0.57;;
24147;SDS011;12309;51.450;-2.624;2023-02-21T03:35:59;1.30;;;0.67;;
24147;SDS011;12309;51.450;-2.624;2023-02-21T03:38:29;0.90;;;0.73;;
24147;SDS011;12309;51.450;-2.624;2023-02-21T03:40:55;1.43;;;0.70;;
24147;SDS011;12309;51.450;-2.624;2023-02-21T03:43:21;1.77;;;0.60;;
24147;SDS011;12309;51.450;-2.624;2023-02-21T03:45:46;2.07;;;0.63;;
24147;SDS011;12309;51.450;-2.624;2023-02-21T03:48:12;1.17;;;0.60;;
24147;SDS011;12309;51.450;-2.624;2023-02-21T03:50:38;1.43;;;0.63;;
24147;SDS011;12309;51.450;-2.624;2023-02-21T03:53:03;0.70;;;0.40;;
24147;SDS011;12309;51.450;-2.624;2023-02-21T03:55:29;1.20;;;0.63;;
24147;SDS011;12309;51.450;-2.624;2023-02-21T03:57:55;1.10;;;0.53;;
24147;SDS011;12309;51.450;-2.624;2023-02-21T04:00:20;1.43;;;0.70;;
24147;SDS011;12309;51.450;-2.624;2023-02-21T04:02:46;1.10;;;0.70;;
24147;SDS011;12309;51.450;-2.624;2023-02-21T04:05:12;2.30;;;0.80;;
24147;SDS011;12309;51.450;-2.624;2023-02-21T04:07:37;0.63;;;0.60;;
24147;SDS011;12309;51.450;-2.624;2023-02-21T04:10:03;0.80;;;0.70;;
24147;SDS011;12309;51.450;-2.624;2023-02-21T04:12:29;0.77;;;0.70;;
24147;SDS011;12309;51.450;-2.624;2023-02-21T04:14:55;0.70;;;0.67;;
24147;SDS011;12309;51.450;-2.624;2023-02-21T04:17:22;1.37;;;0.80;;
24147;SDS011;12309;51.450;-2.624;2023-02-21T04:19:48;0.80;;;0.70;;
24147;SDS011;12309;51.450;-2.624;2023-02-21T04:22:14;1.67;;;0.87;;
24147;SDS011;12309;51.450;-2.624;2023-02-21T04:24:40;1.10;;;0.70;;
24147;SDS011;12309;51.450;-2.624;2023-02-21T04:27:06;1.03;;;0.90;;
24147;SDS011;12309;51.450;-2.624;2023-02-21T04:29:32;0.97;;;0.87;;
24147;SDS011;12309;51.450;-2.624;2023-02-21T04:31:58;1.13;;;0.80;;
24147;SDS011;12309;51.450;-2.624;2023-02-21T04:34:23;0.70;;;0.60;;
24147;SDS011;12309;51.450;-2.624;2023-02-21T04:36:49;1.70;;;0.87;;
24147;SDS011;12309;51.450;-2.624;2023-02-21T04:39:15;0.87;;;0.70;;
24147;SDS011;12309;51.450;-2.624;2023-02-21T04:41:41;1.53;;;0.93;;
24147;SDS011;12309;51.450;-2.624;2023-02-21T04:44:06;0.80;;;0.80;;
24147;SDS011;12309;51.450;-2.624;2023-02-21T04:46:32;1.77;;;0.80;;
24147;SDS011;12309;51.450;-2.624;2023-02-21T04:48:58;1.00;;;0.77;;
24147;SDS011;12309;51.450;-2.624;2023-02-21T04:51:24;2.20;;;1.30;;
24147;SDS011;12309;51.450;-2.624;2023-02-21T04:53:51;1.90;;;1.20;;
24147;SDS011;12309;51.450;-2.624;2023-02-21T04:56:18;2.27;;;1.43;;
24147;SDS011;12309;51.450;-2.624;2023-02-21T04:58:45;2.90;;;1.50;;
24147;SDS011;12309;51.450;-2.624;2023-02-21T05:01:11;2.77;;;1.40;;
24147;SDS011;12309;51.450;-2.624;2023-02-21T05:03:37;2.30;;;1.50;;
24147;SDS011;12309;51.450;-2.624;2023-02-21T05:06:03;2.07;;;1.60;;
24147;SDS011;12309;51.450;-2.624;2023-02-21T05:08:29;1.50;;;1.10;;
24147;SDS011;12309;51.450;-2.624;2023-02-21T05:10:54;1.33;;;1.13;;
24147;SDS011;12309;51.450;-2.624;2023-02-21T05:13:21;1.63;;;1.30;;
24147;SDS011;12309;51.450;-2.624;2023-02-21T05:15:47;1.87;;;1.43;;
24147;SDS011;12309;51.450;-2.624;2023-02-21T05:18:13;1.90;;;1.27;;
24147;SDS011;12309;51.450;-2.624;2023-02-21T05:20:47;2.43;;;1.50;;
24147;SDS011;12309;51.450;-2.624;2023-02-21T05:23:14;2.83;;;1.50;;
24147;SDS011;12309;51.450;-2.624;2023-02-21T05:25:41;1.60;;;1.30;;
24147;SDS011;12309;51.450;-2.624;2023-02-21T05:28:07;1.90;;;1.50;;
24147;SDS011;12309;51.450;-2.624;2023-02-21T05:30:33;2.20;;;1.47;;
24147;SDS011;12309;51.450;-2.624;2023-02-21T05:32:58;1.70;;;1.40;;
24147;SDS011;12309;51.450;-2.624;2023-02-21T05:35:24;3.03;;;1.43;;
24147;SDS011;12309;51.450;-2.624;2023-02-21T05:37:50;2.43;;;1.43;;
24147;SDS011;12309;51.450;-2.624;2023-02-21T05:40:16;1.67;;;1.23;;
24147;SDS011;12309;51.450;-2.624;2023-02-21T05:42:42;1.60;;;1.37;;
24147;SDS011;12309;51.450;-2.624;2023-02-21T05:45:08;1.67;;;1.30;;
24147;SDS011;12309;51.450;-2.624;2023-02-21T05:47:34;2.43;;;1.63;;
24147;SDS011;12309;51.450;-2.624;2023-02-21T05:50:00;2.17;;;1.50;;
24147;SDS011;12309;51.450;-2.624;2023-02-21T05:52:26;2.70;;;1.80;;
24147;SDS011;12309;51.450;-2.624;2023-02-21T05:54:52;3.00;;;1.90;;
24147;SDS011;12309;51.450;-2.624;2023-02-21T05:57:18;2.13;;;1.67;;
24147;SDS011;12309;51.450;-2.624;2023-02-21T05:59:44;3.73;;;1.83;;
24147;SDS011;12309;51.450;-2.624;2023-02-21T06:02:13;3.03;;;1.60;;
24147;SDS011;12309;51.450;-2.624;2023-02-21T06:04:39;1.97;;;1.77;;
24147;SDS011;12309;51.450;-2.624;2023-02-21T06:07:05;2.30;;;1.73;;
24147;SDS011;12309;51.450;-2.624;2023-02-21T06:09:31;2.83;;;1.87;;
24147;SDS011;12309;51.450;-2.624;2023-02-21T06:11:56;2.10;;;1.60;;
24147;SDS011;12309;51.450;-2.624;2023-02-21T06:14:22;2.10;;;1.60;;
24147;SDS011;12309;51.450;-2.624;2023-02-21T06:16:48;1.93;;;1.67;;
24147;SDS011;12309;51.450;-2.624;2023-02-21T06:19:14;2.87;;;1.50;;
24147;SDS011;12309;51.450;-2.624;2023-02-21T06:21:41;1.47;;;1.20;;
24147;SDS011;12309;51.450;-2.624;2023-02-21T06:24:07;2.13;;;1.50;;
24147;SDS011;12309;51.450;-2.624;2023-02-21T06:26:33;1.87;;;1.20;;
24147;SDS011;12309;51.450;-2.624;2023-02-21T06:28:59;1.97;;;1.40;;
24147;SDS011;12309;51.450;-2.624;2023-02-21T06:31:25;2.30;;;1.53;;
24147;SDS011;12309;51.450;-2.624;2023-02-21T06:33:51;4.03;;;1.33;;
24147;SDS011;12309;51.450;-2.624;2023-02-21T06:36:21;2.50;;;1.20;;
24147;SDS011;12309;51.450;-2.624;2023-02-21T06:38:49;2.40;;;1.80;;
24147;SDS011;12309;51.450;-2.624;2023-02-21T06:41:20;2.10;;;1.70;;
24147;SDS011;12309;51.450;-2.624;2023-02-21T06:43:51;2.83;;;2.03;;
24147;SDS011;12309;51.450;-2.624;2023-02-21T06:46:18;2.33;;;1.87;;
24147;SDS011;12309;51.450;-2.624;2023-02-21T06:48:46;3.43;;;2.20;;
24147;SDS011;12309;51.450;-2.624;2023-02-21T06:51:11;4.20;;;2.27;;
24147;SDS011;12309;51.450;-2.624;2023-02-21T06:53:38;3.27;;;1.97;;
24147;SDS011;12309;51.450;-2.624;2023-02-21T06:56:05;3.33;;;2.10;;
24147;SDS011;12309;51.450;-2.624;2023-02-21T06:58:31;4.17;;;1.83;;
24147;SDS011;12309;51.450;-2.624;2023-02-21T07:00:57;3.20;;;2.10;;
24147;SDS011;12309;51.450;-2.624;2023-02-21T07:03:22;3.10;;;2.33;;
24147;SDS011;12309;51.450;-2.624;2023-02-21T07:05:48;4.80;;;2.40;;
24147;SDS011;12309;51.450;-2.624;2023-02-21T07:08:14;3.53;;;2.33;;
24147;SDS011;12309;51.450;-2.624;2023-02-21T07:10:39;3.00;;;2.43;;
24147;SDS011;12309;51.450;-2.624;2023-02-21T07:13:05;5.13;;;2.60;;
24147;SDS011;12309;51.450;-2.624;2023-02-21T07:15:30;3.40;;;2.47;;
24147;SDS011;12309;51.450;-2.624;2023-02-21T07:17:56;3.33;;;2.60;;
24147;SDS011;12309;51.450;-2.624;2023-02-21T07:20:22;4.83;;;2.90;;
24147;SDS011;12309;51.450;-2.624;2023-02-21T07:22:48;3.77;;;2.63;;
24147;SDS011;12309;51.450;-2.624;2023-02-21T07:25:14;4.37;;;2.57;;
24147;SDS011;12309;51.450;-2.624;2023-02-21T07:27:41;3.87;;;2.60;;
24147;SDS011;12309;51.450;-2.624;2023-02-21T07:30:07;4.03;;;2.73;;
24147;SDS011;12309;51.450;-2.624;2023-02-21T07:32:34;4.30;;;2.80;;
24147;SDS011;12309;51.450;-2.624;2023-02-21T07:34:59;5.83;;;3.07;;
24147;SDS011;12309;51.450;-2.624;2023-02-21T07:37:25;4.27;;;2.40;;
24147;SDS011;12309;51.450;-2.624;2023-02-21T07:39:51;5.50;;;2.40;;
24147;SDS011;12309;51.450;-2.624;2023-02-21T07:42:17;4.67;;;2.43;;
24147;SDS011;12309;51.450;-2.624;2023-02-21T07:44:43;4.07;;;2.60;;
24147;SDS011;12309;51.450;-2.624;2023-02-21T07:47:09;3.27;;;2.63;;
24147;SDS011;12309;51.450;-2.624;2023-02-21T07:49:38;3.63;;;2.73;;
24147;SDS011;12309;51.450;-2.624;2023-02-21T07:52:04;3.43;;;2.30;;
24147;SDS011;12309;51.450;-2.624;2023-02-21T07:54:30;4.13;;;2.67;;
24147;SDS011;12309;51.450;-2.624;2023-02-21T07:56:56;3.23;;;2.50;;
24147;SDS011;12309;51.450;-2.624;2023-02-21T07:59:22;3.73;;;2.60;;
24147;SDS011;12309;51.450;-2.624;2023-02-21T08:01:48;3.97;;;2.60;;
24147;SDS011;12309;51.450;-2.624;2023-02-21T08:04:14;4.40;;;3.23;;
24147;SDS011;12309;51.450;-2.624;2023-02-21T08:06:45;7.93;;;3.20;;
24147;SDS011;12309;51.450;-2.624;2023-02-21T08:09:11;6.07;;;3.00;;
24147;SDS011;12309;51.450;-2.624;2023-02-21T08:11:36;4.60;;;2.63;;
24147;SDS011;12309;51.450;-2.624;2023-02-21T08:14:04;6.10;;;3.00;;
24147;SDS011;12309;51.450;-2.624;2023-02-21T08:16:30;4.33;;;3.20;;
24147;SDS011;12309;51.450;-2.624;2023-02-21T08:18:56;6.23;;;3.20;;
24147;SDS011;12309;51.450;-2.624;2023-02-21T08:21:21;4.57;;;3.00;;
24147;SDS011;12309;51.450;-2.624;2023-02-21T08:23:47;6.57;;;3.47;;
24147;SDS011;12309;51.450;-2.624;2023-02-21T08:26:12;5.17;;;3.27;;
24147;SDS011;12309;51.450;-2.624;2023-02-21T08:28:38;5.40;;;3.63;;
24147;SDS011;12309;51.450;-2.624;2023-02-21T08:31:04;3.60;;;2.70;;
24147;SDS011;12309;51.450;-2.624;2023-02-21T08:33:30;3.47;;;2.20;;
24147;SDS011;12309;51.450;-2.624;2023-02-21T08:35:56;4.77;;;2.90;;
24147;SDS011;12309;51.450;-2.624;2023-02-21T08:38:21;3.50;;;2.60;;
24147;SDS011;12309;51.450;-2.624;2023-02-21T08:40:47;4.20;;;2.50;;
24147;SDS011;12309;51.450;-2.624;2023-02-21T08:43:13;3.60;;;2.43;;
24147;SDS011;12309;51.450;-2.624;2023-02-21T08:45:38;4.23;;;2.43;;
24147;SDS011;12309;51.450;-2.624;2023-02-21T08:48:04;4.43;;;2.53;;
24147;SDS011;12309;51.450;-2.624;2023-02-21T08:50:29;5.93;;;2.70;;
24147;SDS011;12309;51.450;-2.624;2023-02-21T08:52:55;6.80;;;2.73;;
24147;SDS011;12309;51.450;-2.624;2023-02-21T08:55:21;4.53;;;2.17;;
24147;SDS011;12309;51.450;-2.624;2023-02-21T08:57:48;4.50;;;1.83;;
24147;SDS011;12309;51.450;-2.624;2023-02-21T09:00:14;6.43;;;2.00;;
24147;SDS011;12309;51.450;-2.624;2023-02-21T09:02:41;3.77;;;2.03;;
24147;SDS011;12309;51.450;-2.624;2023-02-21T09:05:12;3.70;;;2.10;;
24147;SDS011;12309;51.450;-2.624;2023-02-21T09:07:43;3.63;;;2.00;;
24147;SDS011;12309;51.450;-2.624;2023-02-21T09:10:12;4.60;;;1.90;;
24147;SDS011;12309;51.450;-2.624;2023-02-21T09:12:37;2.70;;;1.53;;
24147;SDS011;12309;51.450;-2.624;2023-02-21T09:15:04;5.43;;;1.87;;
24147;SDS011;12309;51.450;-2.624;2023-02-21T09:17:30;2.77;;;1.60;;
24147;SDS011;12309;51.450;-2.624;2023-02-21T09:19:58;3.20;;;1.40;;
24147;SDS011;12309;51.450;-2.624;2023-02-21T09:22:31;3.67;;;1.80;;
24147;SDS011;12309;51.450;-2.624;2023-02-21T09:24:58;3.83;;;1.63;;
24147;SDS011;12309;51.450;-2.624;2023-02-21T09:27:24;5.40;;;2.60;;
24147;SDS011;12309;51.450;-2.624;2023-02-21T09:30:10;6.57;;;2.30;;
24147;SDS011;12309;51.450;-2.624;2023-02-21T09:32:39;5.87;;;2.90;;
24147;SDS011;12309;51.450;-2.624;2023-02-21T09:35:05;6.83;;;3.00;;
24147;SDS011;12309;51.450;-2.624;2023-02-21T09:37:32;8.67;;;3.93;;
24147;SDS011;12309;51.450;-2.624;2023-02-21T09:40:01;8.77;;;3.73;;
24147;SDS011;12309;51.450;-2.624;2023-02-21T09:42:29;8.97;;;3.47;;
24147;SDS011;12309;51.450;-2.624;2023-02-21T09:44:55;7.73;;;4.30;;
24147;SDS011;12309;51.450;-2.624;2023-02-21T09:47:28;8.47;;;4.10;;
24147;SDS011;12309;51.450;-2.624;2023-02-21T09:49:58;8.73;;;3.90;;
24147;SDS011;12309;51.450;-2.624;2023-02-21T09:52:29;6.43;;;3.50;;
24147;SDS011;12309;51.450;-2.624;2023-02-21T09:55:07;8.33;;;3.63;;
24147;SDS011;12309;51.450;-2.624;2023-02-21T09:57:36;5.97;;;3.20;;
24147;SDS011;12309;51.450;-2.624;2023-02-21T10:00:05;21.97;;;10.90;;
24147;SDS011;12309;51.450;-2.624;2023-02-21T10:02:42;6.80;;;4.33;;
24147;SDS011;12309;51.450;-2.624;2023-02-21T10:05:19;3.93;;;2.60;;
24147;SDS011;12309;51.450;-2.624;2023-02-21T10:10:52;4.90;;;3.70;;
24147;SDS011;12309;51.450;-2.624;2023-02-21T10:13:45;5.33;;;3.00;;
24147;SDS011;12309;51.450;-2.624;2023-02-21T10:16:41;4.37;;;2.60;;
24147;SDS011;12309;51.450;-2.624;2023-02-21T10:19:19;5.63;;;2.90;;
24147;SDS011;12309;51.450;-2.624;2023-02-21T10:21:55;5.43;;;3.23;;
24147;SDS011;12309;51.450;-2.624;2023-02-21T10:24:26;6.00;;;3.33;;
24147;SDS011;12309;51.450;-2.624;2023-02-21T10:26:56;5.57;;;3.40;;
24147;SDS011;12309;51.450;-2.624;2023-02-21T10:30:02;6.77;;;3.77;;
24147;SDS011;12309;51.450;-2.624;2023-02-21T10:32:34;5.70;;;3.50;;
24147;SDS011;12309;51.450;-2.624;2023-02-21T10:35:00;5.27;;;3.50;;
24147;SDS011;12309;51.450;-2.624;2023-02-21T10:40:06;5.60;;;3.53;;
24147;SDS011;12309;51.450;-2.624;2023-02-21T10:42:55;5.57;;;3.60;;
24147;SDS011;12309;51.450;-2.624;2023-02-21T10:46:04;5.40;;;3.50;;
24147;SDS011;12309;51.450;-2.624;2023-02-21T10:48:41;6.23;;;3.33;;
24147;SDS011;12309;51.450;-2.624;2023-02-21T10:53:39;9.80;;;4.03;;
24147;SDS011;12309;51.450;-2.624;2023-02-21T10:58:39;5.17;;;3.40;;
24147;SDS011;12309;51.450;-2.624;2023-02-21T11:01:14;6.80;;;3.40;;
24147;SDS011;12309;51.450;-2.624;2023-02-21T11:03:56;5.73;;;3.70;;
24147;SDS011;12309;51.450;-2.624;2023-02-21T11:06:36;5.40;;;3.23;;
24147;SDS011;12309;51.450;-2.624;2023-02-21T11:14:30;6.47;;;3.97;;
24147;SDS011;12309;51.450;-2.624;2023-02-21T11:19:53;9.13;;;3.80;;
24147;SDS011;12309;51.450;-2.624;2023-02-21T11:22:24;6.83;;;3.97;;
24147;SDS011;12309;51.450;-2.624;2023-02-21T11:27:19;8.03;;;4.60;;
24147;SDS011;12309;51.450;-2.624;2023-02-21T11:29:47;8.50;;;5.13;;
24147;SDS011;12309;51.450;-2.624;2023-02-21T11:32:26;9.30;;;5.20;;
24147;SDS011;12309;51.450;-2.624;2023-02-21T11:35:03;8.57;;;5.20;;
24147;SDS011;12309;51.450;-2.624;2023-02-21T11:38:05;9.43;;;5.70;;
24147;SDS011;12309;51.450;-2.624;2023-02-21T11:54:28;11.57;;;6.63;;
24147;SDS011;12309;51.450;-2.624;2023-02-21T12:05:31;13.57;;;7.77;;
24147;SDS011;12309;51.450;-2.624;2023-02-21T12:14:01;14.90;;;8.03;;
24147;SDS011;12309;51.450;-2.624;2023-02-21T12:19:35;13.50;;;8.53;;
24147;SDS011;12309;51.450;-2.624;2023-02-21T12:49:36;12.80;;;7.73;;
24147;SDS011;12309;51.450;-2.624;2023-02-21T12:57:25;11.53;;;6.00;;
24147;SDS011;12309;51.450;-2.624;2023-02-21T13:02:49;11.90;;;7.00;;
24147;SDS011;12309;51.450;-2.624;2023-02-21T13:05:38;9.33;;;5.77;;
24147;SDS011;12309;51.450;-2.624;2023-02-21T13:13:34;7.77;;;4.80;;
24147;SDS011;12309;51.450;-2.624;2023-02-21T13:16:01;9.13;;;5.60;;
24147;SDS011;12309;51.450;-2.624;2023-02-21T13:18:33;8.73;;;4.90;;
24147;SDS011;12309;51.450;-2.624;2023-02-21T13:26:51;8.80;;;5.37;;
24147;SDS011;12309;51.450;-2.624;2023-02-21T13:29:31;8.93;;;5.50;;
24147;SDS011;12309;51.450;-2.624;2023-02-21T13:32:04;10.57;;;4.80;;
24147;SDS011;12309;51.450;-2.624;2023-02-21T13:34:58;7.93;;;5.20;;
24147;SDS011;12309;51.450;-2.624;2023-02-21T13:37:28;8.70;;;5.63;;
24147;SDS011;12309;51.450;-2.624;2023-02-21T13:40:03;9.80;;;5.93;;
24147;SDS011;12309;51.450;-2.624;2023-02-21T13:43:00;9.07;;;5.17;;
24147;SDS011;12309;51.450;-2.624;2023-02-21T13:45:34;9.40;;;5.53;;
24147;SDS011;12309;51.450;-2.624;2023-02-21T14:03:46;7.60;;;5.10;;
24147;SDS011;12309;51.450;-2.624;2023-02-21T14:06:15;9.00;;;4.90;;
24147;SDS011;12309;51.450;-2.624;2023-02-21T14:09:11;7.32;;;4.20;;
24147;SDS011;12309;51.450;-2.624;2023-02-21T14:11:43;9.75;;;4.63;;
24147;SDS011;12309;51.450;-2.624;2023-02-21T14:14:46;7.65;;;4.50;;
24147;SDS011;12309;51.450;-2.624;2023-02-21T14:17:09;8.55;;;5.13;;
24147;SDS011;12309;51.450;-2.624;2023-02-21T14:24:44;5.50;;;4.32;;
24147;SDS011;12309;51.450;-2.624;2023-02-21T14:29:41;6.68;;;4.55;;
24147;SDS011;12309;51.450;-2.624;2023-02-21T14:32:24;8.85;;;4.18;;
24147;SDS011;12309;51.450;-2.624;2023-02-21T14:34:55;7.03;;;4.53;;
24147;SDS011;12309;51.450;-2.624;2023-02-21T14:39:58;6.75;;;4.47;;
24147;SDS011;12309;51.450;-2.624;2023-02-21T14:58:58;9.75;;;3.47;;
24147;SDS011;12309;51.450;-2.624;2023-02-21T15:07:43;3.40;;;2.35;;
24147;SDS011;12309;51.450;-2.624;2023-02-21T15:12:55;2.38;;;1.88;;
24147;SDS011;12309;51.450;-2.624;2023-02-21T15:18:07;6.05;;;2.85;;
24147;SDS011;12309;51.450;-2.624;2023-02-21T15:20:47;2.75;;;1.95;;
24147;SDS011;12309;51.450;-2.624;2023-02-21T15:23:32;8.98;;;1.95;;
24147;SDS011;12309;51.450;-2.624;2023-02-21T15:25:59;5.57;;;1.98;;
24147;SDS011;12309;51.450;-2.624;2023-02-21T15:28:33;6.38;;;2.10;;
24147;SDS011;12309;51.450;-2.624;2023-02-21T15:31:00;6.18;;;1.77;;
24147;SDS011;12309;51.450;-2.624;2023-02-21T15:33:30;4.22;;;1.85;;
24147;SDS011;12309;51.450;-2.624;2023-02-21T15:35:59;5.47;;;2.08;;
24147;SDS011;12309;51.450;-2.624;2023-02-21T15:38:36;3.97;;;2.45;;
24147;SDS011;12309;51.450;-2.624;2023-02-21T15:41:50;4.40;;;2.05;;
24147;SDS011;12309;51.450;-2.624;2023-02-21T15:46:26;4.85;;;1.90;;
24147;SDS011;12309;51.450;-2.624;2023-02-21T15:48:58;3.25;;;2.00;;
24147;SDS011;12309;51.450;-2.624;2023-02-21T15:51:26;3.33;;;1.60;;
24147;SDS011;12309;51.450;-2.624;2023-02-21T15:54:06;10.07;;;1.65;;
24147;SDS011;12309;51.450;-2.624;2023-02-21T15:59:50;3.33;;;1.63;;
24147;SDS011;12309;51.450;-2.624;2023-02-21T16:02:41;3.15;;;1.90;;
24147;SDS011;12309;51.450;-2.624;2023-02-21T16:05:21;3.67;;;1.80;;
24147;SDS011;12309;51.450;-2.624;2023-02-21T16:07:51;4.63;;;1.65;;
24147;SDS011;12309;51.450;-2.624;2023-02-21T16:10:20;1.83;;;1.25;;
24147;SDS011;12309;51.450;-2.624;2023-02-21T16:12:53;2.72;;;1.45;;
24147;SDS011;12309;51.450;-2.624;2023-02-21T16:20:21;1.88;;;1.40;;
24147;SDS011;12309;51.450;-2.624;2023-02-21T16:23:21;1.73;;;1.20;;
24147;SDS011;12309;51.450;-2.624;2023-02-21T16:28:34;4.03;;;1.50;;
24147;SDS011;12309;51.450;-2.624;2023-02-21T16:31:02;1.90;;;1.40;;
24147;SDS011;12309;51.450;-2.624;2023-02-21T16:33:30;2.13;;;1.53;;
24147;SDS011;12309;51.450;-2.624;2023-02-21T16:35:56;2.40;;;1.20;;
24147;SDS011;12309;51.450;-2.624;2023-02-21T16:38:23;2.83;;;1.83;;
24147;SDS011;12309;51.450;-2.624;2023-02-21T16:40:50;1.90;;;1.40;;
24147;SDS011;12309;51.450;-2.624;2023-02-21T16:43:18;2.80;;;1.50;;
24147;SDS011;12309;51.450;-2.624;2023-02-21T16:45:46;5.47;;;1.80;;
24147;SDS011;12309;51.450;-2.624;2023-02-21T16:48:17;9.10;;;2.83;;
24147;SDS011;12309;51.450;-2.624;2023-02-21T16:50:46;3.83;;;2.07;;
24147;SDS011;12309;51.450;-2.624;2023-02-21T16:53:12;4.60;;;1.80;;
24147;SDS011;12309;51.450;-2.624;2023-02-21T16:55:39;16.53;;;2.37;;
24147;SDS011;12309;51.450;-2.624;2023-02-21T16:58:27;5.07;;;2.00;;
24147;SDS011;12309;51.450;-2.624;2023-02-21T17:01:38;2.90;;;2.00;;
24147;SDS011;12309;51.450;-2.624;2023-02-21T17:03:49;8.10;;;2.20;;
24147;SDS011;12309;51.450;-2.624;2023-02-21T17:06:15;4.57;;;2.43;;
24147;SDS011;12309;51.450;-2.624;2023-02-21T17:08:44;12.73;;;4.10;;
24147;SDS011;12309;51.450;-2.624;2023-02-21T17:11:09;5.20;;;2.20;;
24147;SDS011;12309;51.450;-2.624;2023-02-21T17:13:35;4.97;;;2.30;;
24147;SDS011;12309;51.450;-2.624;2023-02-21T17:16:01;3.43;;;2.60;;
24147;SDS011;12309;51.450;-2.624;2023-02-21T17:18:27;6.20;;;3.63;;
24147;SDS011;12309;51.450;-2.624;2023-02-21T17:20:53;7.43;;;5.13;;
24147;SDS011;12309;51.450;-2.624;2023-02-21T17:23:19;6.63;;;4.53;;
24147;SDS011;12309;51.450;-2.624;2023-02-21T17:25:45;4.00;;;2.60;;
24147;SDS011;12309;51.450;-2.624;2023-02-21T17:28:11;2.70;;;2.10;;
24147;SDS011;12309;51.450;-2.624;2023-02-21T17:30:37;6.07;;;3.30;;
24147;SDS011;12309;51.450;-2.624;2023-02-21T17:33:02;3.43;;;2.77;;
24147;SDS011;12309;51.450;-2.624;2023-02-21T17:35:29;3.53;;;2.40;;
24147;SDS011;12309;51.450;-2.624;2023-02-21T17:37:54;8.97;;;5.60;;
24147;SDS011;12309;51.450;-2.624;2023-02-21T17:40:25;7.17;;;3.03;;
24147;SDS011;12309;51.450;-2.624;2023-02-21T17:42:50;4.47;;;2.77;;
24147;SDS011;12309;51.450;-2.624;2023-02-21T17:45:17;7.00;;;2.90;;
24147;SDS011;12309;51.450;-2.624;2023-02-21T17:47:44;9.30;;;6.67;;
24147;SDS011;12309;51.450;-2.624;2023-02-21T17:50:10;5.40;;;2.77;;
24147;SDS011;12309;51.450;-2.624;2023-02-21T17:52:37;7.20;;;4.17;;
24147;SDS011;12309;51.450;-2.624;2023-02-21T17:55:03;8.33;;;4.10;;
24147;SDS011;12309;51.450;-2.624;2023-02-21T17:57:32;7.00;;;3.17;;
24147;SDS011;12309;51.450;-2.624;2023-02-21T18:00:02;5.97;;;3.33;;
24147;SDS011;12309;51.450;-2.624;2023-02-21T18:02:33;9.47;;;5.53;;
24147;SDS011;12309;51.450;-2.624;2023-02-21T18:04:59;7.57;;;4.30;;
24147;SDS011;12309;51.450;-2.624;2023-02-21T18:07:25;11.20;;;5.57;;
24147;SDS011;12309;51.450;-2.624;2023-02-21T18:09:52;7.10;;;4.60;;
24147;SDS011;12309;51.450;-2.624;2023-02-21T18:12:18;9.80;;;5.07;;
24147;SDS011;12309;51.450;-2.624;2023-02-21T18:14:43;7.37;;;5.63;;
24147;SDS011;12309;51.450;-2.624;2023-02-21T18:17:09;9.27;;;5.97;;
24147;SDS011;12309;51.450;-2.624;2023-02-21T18:19:35;8.50;;;5.37;;